createdAt,value
2023-03-05T00:00:05.397Z,99883.84
2023-03-05T00:00:17.996Z,99887.31
2023-03-05T00:00:29.930Z,99888.19
2023-03-05T00:00:41.902Z,99885.63
2023-03-05T00:00:53.859Z,99890.78
2023-03-05T00:01:11.047Z,99883.91
2023-03-05T00:01:26.683Z,99889.06
2023-03-05T00:01:38.790Z,99887.34
2023-03-05T00:01:50.683Z,99884.78
2023-03-05T00:02:03.109Z,99885.63
2023-03-05T00:02:16.022Z,99883.00
2023-03-05T00:02:28.004Z,99886.44
2023-03-05T00:02:42.877Z,99885.59
2023-03-05T00:02:54.997Z,99883.91
2023-03-05T00:03:06.968Z,99884.75
2023-03-05T00:03:18.967Z,99883.84
2023-03-05T00:03:30.979Z,99885.59
2023-03-05T00:03:43.171Z,99878.69
2023-03-05T00:03:57.970Z,99883.84
2023-03-05T00:04:15.370Z,99883.84
2023-03-05T00:04:27.463Z,99883.84
2023-03-05T00:04:39.391Z,99880.41
2023-03-05T00:04:51.324Z,99880.44
2023-03-05T00:05:03.438Z,99886.44
2023-03-05T00:05:15.468Z,99886.44
2023-03-05T00:05:27.488Z,99887.28
2023-03-05T00:05:39.497Z,99881.28
2023-03-05T00:05:56.971Z,99884.75
2023-03-05T00:06:08.945Z,99883.91
2023-03-05T00:06:23.081Z,99884.75
2023-03-05T00:06:35.126Z,99882.16
2023-03-05T00:06:47.217Z,99880.44
2023-03-05T00:06:59.164Z,99884.75
2023-03-05T00:07:14.191Z,99884.78
2023-03-05T00:07:26.168Z,99883.09
2023-03-05T00:07:38.195Z,99884.78
2023-03-05T00:07:50.921Z,99884.75
2023-03-05T00:08:02.981Z,99892.47
2023-03-05T00:08:15.022Z,99885.63
2023-03-05T00:08:28.193Z,99889.06
2023-03-05T00:08:40.446Z,99893.41
2023-03-05T00:08:53.406Z,99891.63
2023-03-05T00:09:06.049Z,99892.47
2023-03-05T00:09:18.094Z,99887.31
2023-03-05T00:09:30.015Z,99891.59
2023-03-05T00:09:42.074Z,99892.44
2023-03-05T00:09:54.074Z,99890.75
2023-03-05T00:10:06.753Z,99887.28
2023-03-05T00:10:18.702Z,99893.31
2023-03-05T00:10:30.635Z,99893.31
2023-03-05T00:10:42.628Z,99891.59
2023-03-05T00:11:03.341Z,99898.47
2023-03-05T00:11:15.404Z,99891.59
2023-03-05T00:11:30.095Z,99890.78
2023-03-05T00:11:42.358Z,99888.19
2023-03-05T00:11:54.292Z,99889.94
2023-03-05T00:12:08.017Z,99894.19
2023-03-05T00:12:20.038Z,99893.34
2023-03-05T00:12:32.083Z,99893.34
2023-03-05T00:12:43.983Z,99896.84
2023-03-05T00:12:56.003Z,99891.75
2023-03-05T00:13:08.088Z,99892.66
2023-03-05T00:13:20.034Z,99892.66
2023-03-05T00:13:35.487Z,99889.25
2023-03-05T00:13:47.606Z,99887.56
2023-03-05T00:14:01.847Z,99889.28
2023-03-05T00:14:13.869Z,99890.13
2023-03-05T00:14:25.807Z,99892.69
2023-03-05T00:14:37.737Z,99884.94
2023-03-05T00:14:49.701Z,99894.34
2023-03-05T00:15:01.711Z,99890.91
2023-03-05T00:15:16.054Z,99892.59
2023-03-05T00:15:28.014Z,99888.28
2023-03-05T00:15:43.043Z,99891.72
2023-03-05T00:15:55.706Z,99894.28
2023-03-05T00:16:11.770Z,99897.75
2023-03-05T00:16:26.724Z,99895.97
2023-03-05T00:16:39.869Z,99889.09
2023-03-05T00:16:51.816Z,99893.44
2023-03-05T00:17:05.861Z,99893.50
2023-03-05T00:17:18.123Z,99890.97
2023-03-05T00:17:30.295Z,99884.13
2023-03-05T00:17:42.264Z,99894.44
2023-03-05T00:17:54.172Z,99891.00
2023-03-05T00:18:06.224Z,99888.41
2023-03-05T00:18:21.575Z,99894.44
2023-03-05T00:18:34.291Z,99893.56
2023-03-05T00:18:46.570Z,99887.53
2023-03-05T00:19:00.213Z,99885.84
2023-03-05T00:19:12.353Z,99897.88
2023-03-05T00:19:24.255Z,99892.72
2023-03-05T00:19:36.445Z,99892.78
2023-03-05T00:19:48.540Z,99890.22
2023-03-05T00:20:02.340Z,99892.78
2023-03-05T00:20:15.007Z,99887.69
2023-03-05T00:20:27.011Z,99880.81
2023-03-05T00:20:38.949Z,99889.38
2023-03-05T00:20:50.943Z,99891.97
2023-03-05T00:21:06.262Z,99889.38
2023-03-05T00:21:18.138Z,99892.81
2023-03-05T00:21:33.260Z,99888.50
2023-03-05T00:21:45.893Z,99886.81
2023-03-05T00:21:57.871Z,99892.78
2023-03-05T00:22:09.989Z,99894.50
2023-03-05T00:22:21.941Z,99886.78
2023-03-05T00:22:35.565Z,99885.91
2023-03-05T00:22:47.508Z,99892.78
2023-03-05T00:22:59.413Z,99889.31
2023-03-05T00:23:11.691Z,99888.47
2023-03-05T00:23:23.763Z,99887.59
2023-03-05T00:23:35.659Z,99885.00
2023-03-05T00:23:47.745Z,99887.56
2023-03-05T00:24:01.614Z,99890.16
2023-03-05T00:24:17.153Z,99892.75
2023-03-05T00:24:29.063Z,99888.50
2023-03-05T00:24:41.098Z,99894.53
2023-03-05T00:24:53.514Z,99890.28
2023-03-05T00:25:05.991Z,99881.69
2023-03-05T00:25:18.202Z,99891.97
2023-03-05T00:25:30.111Z,99891.09
2023-03-05T00:25:42.750Z,99887.66
2023-03-05T00:25:54.738Z,99884.22
2023-03-05T00:26:07.759Z,99881.63
2023-03-05T00:26:22.148Z,99882.47
2023-03-05T00:26:36.877Z,99879.06
2023-03-05T00:26:49.722Z,99885.94
2023-03-05T00:27:02.236Z,99889.31
2023-03-05T00:27:15.063Z,99879.88
2023-03-05T00:27:27.013Z,99884.19
2023-03-05T00:27:38.959Z,99882.44
2023-03-05T00:27:50.925Z,99877.28
2023-03-05T00:28:03.667Z,99884.16
2023-03-05T00:28:15.659Z,99887.56
2023-03-05T00:28:27.561Z,99880.69
2023-03-05T00:28:39.626Z,99878.09
2023-03-05T00:28:52.504Z,99878.09
2023-03-05T00:29:05.584Z,99872.09
2023-03-05T00:29:20.352Z,99880.66
2023-03-05T00:29:32.239Z,99883.22
2023-03-05T00:29:44.197Z,99881.47
2023-03-05T00:29:56.161Z,99877.16
2023-03-05T00:30:09.095Z,99875.47
2023-03-05T00:30:21.102Z,99872.06
2023-03-05T00:30:33.812Z,99881.56
2023-03-05T00:30:46.121Z,99879.84
2023-03-05T00:31:01.341Z,99867.78
2023-03-05T00:31:13.324Z,99870.31
2023-03-05T00:31:33.951Z,99870.34
2023-03-05T00:31:46.208Z,99872.06
2023-03-05T00:31:58.526Z,99871.22
2023-03-05T00:32:10.497Z,99878.94
2023-03-05T00:32:22.588Z,99877.25
2023-03-05T00:32:36.268Z,99877.31
2023-03-05T00:32:48.416Z,99876.47
2023-03-05T00:33:00.412Z,99880.78
2023-03-05T00:33:13.335Z,99868.78
2023-03-05T00:33:25.270Z,99875.66
2023-03-05T00:33:37.299Z,99870.50
2023-03-05T00:33:56.887Z,99877.41
2023-03-05T00:34:12.207Z,99872.25
2023-03-05T00:34:25.760Z,99876.56
2023-03-05T00:34:37.800Z,99867.09
2023-03-05T00:34:52.434Z,99870.53
2023-03-05T00:35:04.767Z,99874.84
2023-03-05T00:35:16.712Z,99868.81
2023-03-05T00:35:29.118Z,99874.81
2023-03-05T00:35:48.631Z,99872.22
2023-03-05T00:36:05.913Z,99872.19
2023-03-05T00:36:18.162Z,99868.75
2023-03-05T00:36:30.493Z,99872.19
2023-03-05T00:36:44.997Z,99871.34
2023-03-05T00:36:57.058Z,99874.78
2023-03-05T00:37:09.117Z,99875.63
2023-03-05T00:37:21.059Z,99872.19
2023-03-05T00:37:33.046Z,99869.56
2023-03-05T00:37:45.069Z,99873.00
2023-03-05T00:37:57.411Z,99870.44
2023-03-05T00:38:10.571Z,99866.97
2023-03-05T00:38:25.057Z,99861.81
2023-03-05T00:38:37.037Z,99870.44
2023-03-05T00:38:49.194Z,99867.00
2023-03-05T00:39:01.373Z,99865.31
2023-03-05T00:39:14.086Z,99865.34
2023-03-05T00:39:26.005Z,99867.91
2023-03-05T00:39:38.023Z,99867.03
2023-03-05T00:39:49.983Z,99873.91
2023-03-05T00:40:03.000Z,99867.91
2023-03-05T00:40:15.247Z,99867.00
2023-03-05T00:40:27.352Z,99868.72
2023-03-05T00:40:40.833Z,99862.69
2023-03-05T00:40:52.878Z,99862.69
2023-03-05T00:41:04.878Z,99867.00
2023-03-05T00:41:17.319Z,99866.97
2023-03-05T00:41:29.241Z,99863.56
2023-03-05T00:41:41.402Z,99865.28
2023-03-05T00:41:56.336Z,99861.81
2023-03-05T00:42:08.370Z,99865.25
2023-03-05T00:42:20.324Z,99868.66
2023-03-05T00:42:38.404Z,99864.38
2023-03-05T00:42:50.581Z,99865.22
2023-03-05T00:43:02.674Z,99869.50
2023-03-05T00:43:14.609Z,99868.66
2023-03-05T00:43:26.571Z,99866.09
2023-03-05T00:43:38.481Z,99866.09
2023-03-05T00:43:50.551Z,99866.13
2023-03-05T00:44:02.858Z,99873.00
2023-03-05T00:44:14.781Z,99867.00
2023-03-05T00:44:26.831Z,99867.84
2023-03-05T00:44:38.741Z,99868.69
2023-03-05T00:44:50.664Z,99870.47
2023-03-05T00:45:02.550Z,99860.16
2023-03-05T00:45:14.713Z,99870.47
2023-03-05T00:45:26.672Z,99865.34
2023-03-05T00:45:39.026Z,99862.78
2023-03-05T00:45:51.042Z,99868.75
2023-03-05T00:46:03.176Z,99863.59
2023-03-05T00:46:16.124Z,99875.63
2023-03-05T00:46:28.500Z,99870.47
2023-03-05T00:46:40.642Z,99873.91
2023-03-05T00:46:52.824Z,99864.50
2023-03-05T00:47:05.206Z,99865.34
2023-03-05T00:47:18.422Z,99871.34
2023-03-05T00:47:30.585Z,99867.09
2023-03-05T00:47:42.536Z,99867.09
2023-03-05T00:47:54.633Z,99863.63
2023-03-05T00:48:06.666Z,99861.91
2023-03-05T00:48:18.597Z,99867.94
2023-03-05T00:48:30.622Z,99868.78
2023-03-05T00:48:43.300Z,99863.59
2023-03-05T00:48:55.865Z,99865.34
2023-03-05T00:49:07.916Z,99860.22
2023-03-05T00:49:20.008Z,99869.66
2023-03-05T00:49:32.019Z,99868.81
2023-03-05T00:49:44.143Z,99861.94
2023-03-05T00:49:56.090Z,99863.66
2023-03-05T00:50:09.190Z,99862.78
2023-03-05T00:50:21.299Z,99867.13
2023-03-05T00:50:33.225Z,99861.09
2023-03-05T00:50:46.019Z,99868.81
2023-03-05T00:50:58.034Z,99860.25
2023-03-05T00:51:10.409Z,99865.38
2023-03-05T00:51:23.116Z,99852.50
2023-03-05T00:51:35.198Z,99859.38
2023-03-05T00:51:47.230Z,99859.38
2023-03-05T00:52:01.578Z,99867.13
2023-03-05T00:52:13.589Z,99856.84
2023-03-05T00:52:26.022Z,99861.13
2023-03-05T00:52:38.266Z,99867.13
2023-03-05T00:52:50.252Z,99867.09
2023-03-05T00:53:02.229Z,99862.00
2023-03-05T00:53:14.356Z,99862.84
2023-03-05T00:53:26.601Z,99857.72
2023-03-05T00:53:38.712Z,99862.84
2023-03-05T00:53:50.930Z,99867.13
2023-03-05T00:54:06.275Z,99858.53
2023-03-05T00:54:18.718Z,99857.66
2023-03-05T00:54:30.652Z,99861.09
2023-03-05T00:54:42.603Z,99861.94
2023-03-05T00:54:54.573Z,99860.25
2023-03-05T00:55:06.874Z,99863.66
2023-03-05T00:55:19.004Z,99858.50
2023-03-05T00:55:31.082Z,99861.97
2023-03-05T00:55:43.061Z,99864.50
2023-03-05T00:55:55.085Z,99858.50
2023-03-05T00:56:07.683Z,99867.09
2023-03-05T00:56:20.226Z,99860.25
2023-03-05T00:56:32.290Z,99861.06
2023-03-05T00:56:44.994Z,99861.09
2023-03-05T00:56:59.939Z,99859.34
2023-03-05T00:57:11.889Z,99860.19
2023-03-05T00:57:23.848Z,99856.75
2023-03-05T00:57:35.827Z,99859.31
2023-03-05T00:57:47.771Z,99852.47
2023-03-05T00:57:59.690Z,99858.47
2023-03-05T00:58:14.551Z,99850.75
2023-03-05T00:58:26.763Z,99853.31
2023-03-05T00:58:39.363Z,99854.16
2023-03-05T00:58:51.559Z,99855.03
2023-03-05T00:59:03.623Z,99857.59
2023-03-05T00:59:15.532Z,99852.44
2023-03-05T00:59:27.563Z,99853.31
2023-03-05T00:59:39.523Z,99855.03
2023-03-05T00:59:51.487Z,99854.16
2023-03-05T01:00:04.302Z,99856.81
2023-03-05T01:00:17.144Z,99858.50
2023-03-05T01:00:29.565Z,99858.50
2023-03-05T01:00:41.737Z,99858.50
2023-03-05T01:00:57.626Z,99852.47
2023-03-05T01:01:09.588Z,99861.03
2023-03-05T01:01:21.772Z,99850.75
2023-03-05T01:01:33.784Z,99855.03
2023-03-05T01:01:45.873Z,99853.34
2023-03-05T01:01:57.941Z,99851.63
2023-03-05T01:02:10.350Z,99851.63
2023-03-05T01:02:22.283Z,99854.19
2023-03-05T01:02:34.893Z,99848.16
2023-03-05T01:02:46.958Z,99847.34
2023-03-05T01:02:58.978Z,99855.06
2023-03-05T01:03:11.066Z,99855.09
2023-03-05T01:03:23.069Z,99855.06
2023-03-05T01:03:35.799Z,99850.81
2023-03-05T01:03:47.802Z,99853.41
2023-03-05T01:04:01.126Z,99850.00
2023-03-05T01:04:13.169Z,99850.81
2023-03-05T01:04:25.108Z,99853.38
2023-03-05T01:04:37.260Z,99848.19
2023-03-05T01:04:49.547Z,99851.59
2023-03-05T01:05:01.999Z,99859.28
2023-03-05T01:05:15.328Z,99853.28
2023-03-05T01:05:27.545Z,99848.16
2023-03-05T01:05:39.501Z,99849.00
2023-03-05T01:05:51.463Z,99849.84
2023-03-05T01:06:08.712Z,99856.72
2023-03-05T01:06:46.651Z,99845.56
2023-03-05T01:06:59.350Z,99849.81
2023-03-05T01:07:11.412Z,99853.28
2023-03-05T01:07:23.462Z,99852.41
2023-03-05T01:07:35.350Z,99848.13
2023-03-05T01:07:47.338Z,99846.41
2023-03-05T01:07:59.338Z,99844.72
2023-03-05T01:08:11.569Z,99853.31
2023-03-05T01:08:24.782Z,99846.44
2023-03-05T01:08:37.779Z,99845.59
2023-03-05T01:08:50.170Z,99847.28
2023-03-05T01:09:02.145Z,99847.28
2023-03-05T01:09:17.057Z,99844.72
2023-03-05T01:09:29.027Z,99846.41
2023-03-05T01:09:40.951Z,99846.41
2023-03-05T01:09:52.908Z,99845.53
2023-03-05T01:10:06.020Z,99849.78
2023-03-05T01:10:17.912Z,99848.09
2023-03-05T01:10:30.202Z,99845.56
2023-03-05T01:10:45.113Z,99849.81
2023-03-05T01:10:57.158Z,99851.53
2023-03-05T01:11:10.327Z,99849.78
2023-03-05T01:11:22.411Z,99855.75
2023-03-05T01:11:34.345Z,99848.06
2023-03-05T01:11:46.247Z,99848.03
2023-03-05T01:11:58.299Z,99846.31
2023-03-05T01:12:10.209Z,99844.56
2023-03-05T01:12:22.106Z,99846.34
2023-03-05T01:12:34.121Z,99848.06
2023-03-05T01:12:46.115Z,99845.56
2023-03-05T01:12:58.349Z,99846.44
2023-03-05T01:13:10.257Z,99853.25
2023-03-05T01:13:22.426Z,99852.38
2023-03-05T01:13:35.347Z,99847.22
2023-03-05T01:13:47.340Z,99842.06
2023-03-05T01:13:59.228Z,99841.19
2023-03-05T01:14:11.172Z,99847.22
2023-03-05T01:14:23.762Z,99843.00
2023-03-05T01:14:36.674Z,99846.44
2023-03-05T01:14:48.638Z,99844.75
2023-03-05T01:15:00.562Z,99841.31
2023-03-05T01:15:12.549Z,99843.03
2023-03-05T01:15:25.260Z,99842.19
2023-03-05T01:15:37.202Z,99846.53
2023-03-05T01:15:50.952Z,99839.69
2023-03-05T01:16:04.010Z,99840.53
2023-03-05T01:16:15.987Z,99839.72
2023-03-05T01:16:28.059Z,99835.41
2023-03-05T01:16:40.119Z,99846.59
2023-03-05T01:16:52.026Z,99841.50
2023-03-05T01:17:04.178Z,99842.34
2023-03-05T01:17:16.106Z,99839.78
2023-03-05T01:17:28.018Z,99838.91
2023-03-05T01:17:39.896Z,99841.44
2023-03-05T01:17:52.001Z,99842.28
2023-03-05T01:18:04.150Z,99838.84
2023-03-05T01:18:16.771Z,99838.84
2023-03-05T01:18:29.120Z,99839.72
2023-03-05T01:18:41.128Z,99840.59
2023-03-05T01:18:53.212Z,99831.16
2023-03-05T01:19:05.204Z,99835.44
2023-03-05T01:19:17.551Z,99833.72
2023-03-05T01:19:29.724Z,99835.44
2023-03-05T01:19:41.632Z,99836.28
2023-03-05T01:19:53.536Z,99833.72
2023-03-05T01:20:06.555Z,99831.97
2023-03-05T01:20:21.364Z,99836.25
2023-03-05T01:20:33.820Z,99831.97
2023-03-05T01:20:46.226Z,99831.97
2023-03-05T01:20:58.192Z,99831.09
2023-03-05T01:21:10.501Z,99835.34
2023-03-05T01:21:22.570Z,99836.16
2023-03-05T01:21:36.014Z,99826.72
2023-03-05T01:21:47.888Z,99832.72
2023-03-05T01:22:00.101Z,99831.00
2023-03-05T01:22:12.024Z,99826.69
2023-03-05T01:22:23.980Z,99831.81
2023-03-05T01:22:35.906Z,99835.22
2023-03-05T01:22:48.082Z,99832.66
2023-03-05T01:23:01.643Z,99835.19
2023-03-05T01:23:16.158Z,99829.19
2023-03-05T01:23:28.116Z,99829.16
2023-03-05T01:23:40.253Z,99830.00
2023-03-05T01:23:52.418Z,99825.69
2023-03-05T01:24:04.886Z,99830.00
2023-03-05T01:24:16.851Z,99827.44
2023-03-05T01:24:30.956Z,99825.69
2023-03-05T01:24:42.897Z,99823.97
2023-03-05T01:24:54.865Z,99832.50
2023-03-05T01:25:07.559Z,99821.34
2023-03-05T01:25:20.064Z,99825.63
2023-03-05T01:25:32.078Z,99829.94
2023-03-05T01:25:44.323Z,99824.81
2023-03-05T01:25:58.039Z,99825.69
2023-03-05T01:26:10.076Z,99825.69
2023-03-05T01:26:22.092Z,99824.09
2023-03-05T01:26:34.616Z,99827.53
2023-03-05T01:26:46.692Z,99828.34
2023-03-05T01:26:58.818Z,99822.31
2023-03-05T01:27:10.744Z,99824.94
2023-03-05T01:27:23.173Z,99826.72
2023-03-05T01:27:35.256Z,99825.91
2023-03-05T01:27:47.340Z,99825.91
2023-03-05T01:27:59.306Z,99821.63
2023-03-05T01:28:11.488Z,99822.47
2023-03-05T01:28:23.525Z,99820.78
2023-03-05T01:28:38.637Z,99821.59
2023-03-05T01:28:50.687Z,99824.19
2023-03-05T01:29:02.975Z,99819.09
2023-03-05T01:29:15.537Z,99820.78
2023-03-05T01:29:28.164Z,99821.63
2023-03-05T01:29:40.043Z,99825.94
2023-03-05T01:29:51.963Z,99829.34
2023-03-05T01:30:05.314Z,99826.75
2023-03-05T01:30:17.360Z,99827.56
2023-03-05T01:30:29.352Z,99825.03
2023-03-05T01:30:41.264Z,99829.34
2023-03-05T01:30:56.244Z,99824.22
2023-03-05T01:31:09.851Z,99821.59
2023-03-05T01:31:22.158Z,99821.59
2023-03-05T01:31:34.172Z,99821.59
2023-03-05T01:31:46.195Z,99820.75
2023-03-05T01:31:58.207Z,99820.72
2023-03-05T01:32:10.130Z,99824.16
2023-03-05T01:32:22.094Z,99818.97
2023-03-05T01:32:35.880Z,99820.69
2023-03-05T01:32:47.912Z,99819.00
2023-03-05T01:33:00.125Z,99817.31
2023-03-05T01:33:12.028Z,99819.03
2023-03-05T01:33:24.049Z,99820.72
2023-03-05T01:33:36.205Z,99815.59
2023-03-05T01:33:48.445Z,99819.00
2023-03-05T01:34:00.415Z,99818.97
2023-03-05T01:34:13.589Z,99820.66
2023-03-05T01:34:25.508Z,99821.50
2023-03-05T01:34:37.817Z,99821.50
2023-03-05T01:34:49.792Z,99819.78
2023-03-05T01:35:03.928Z,99816.31
2023-03-05T01:35:21.382Z,99821.47
2023-03-05T01:35:33.392Z,99812.88
2023-03-05T01:35:49.200Z,99817.16
2023-03-05T01:36:01.152Z,99819.75
2023-03-05T01:36:16.697Z,99813.72
2023-03-05T01:36:28.701Z,99818.88
2023-03-05T01:36:42.358Z,99820.56
2023-03-05T01:36:54.304Z,99816.25
2023-03-05T01:37:06.213Z,99816.25
2023-03-05T01:37:18.237Z,99812.78
2023-03-05T01:37:30.597Z,99806.75
2023-03-05T01:37:42.750Z,99815.34
2023-03-05T01:37:54.932Z,99810.16
2023-03-05T01:38:06.832Z,99807.59
2023-03-05T01:38:18.977Z,99805.03
2023-03-05T01:38:30.858Z,99810.16
2023-03-05T01:38:44.436Z,99803.31
2023-03-05T01:38:56.349Z,99811.91
2023-03-05T01:39:08.402Z,99805.03
2023-03-05T01:39:20.287Z,99811.06
2023-03-05T01:39:32.261Z,99806.78
2023-03-05T01:39:44.489Z,99812.75
2023-03-05T01:39:56.535Z,99809.38
2023-03-05T01:40:10.263Z,99815.34
2023-03-05T01:40:26.312Z,99811.91
2023-03-05T01:40:38.296Z,99816.25
2023-03-05T01:40:50.968Z,99816.25
2023-03-05T01:41:02.977Z,99807.63
2023-03-05T01:41:16.124Z,99805.91
2023-03-05T01:41:28.218Z,99810.16
2023-03-05T01:41:40.182Z,99805.03
2023-03-05T01:41:52.079Z,99810.16
2023-03-05T01:42:04.843Z,99801.56
2023-03-05T01:42:17.060Z,99799.88
2023-03-05T01:42:28.981Z,99805.00
2023-03-05T01:42:46.805Z,99800.72
2023-03-05T01:43:23.923Z,99803.28
2023-03-05T01:43:35.889Z,99803.25
2023-03-05T01:43:48.836Z,99807.56
2023-03-05T01:44:00.865Z,99805.00
2023-03-05T01:44:30.409Z,99805.06
2023-03-05T01:45:12.229Z,99803.34
2023-03-05T01:45:24.994Z,99801.56
2023-03-05T01:45:38.049Z,99804.97
2023-03-05T01:46:17.722Z,99805.81
2023-03-05T01:46:29.655Z,99807.50
2023-03-05T01:46:41.634Z,99803.19
2023-03-05T01:46:53.712Z,99804.91
2023-03-05T01:47:05.772Z,99800.59
2023-03-05T01:47:17.695Z,99799.78
2023-03-05T01:47:30.237Z,99794.59
2023-03-05T01:47:43.084Z,99801.44
2023-03-05T01:47:54.982Z,99798.03
2023-03-05T01:48:06.857Z,99799.75
2023-03-05T01:48:18.830Z,99800.59
2023-03-05T01:48:30.765Z,99804.88
2023-03-05T01:48:47.308Z,99798.84
2023-03-05T01:49:03.099Z,99799.69
2023-03-05T01:49:20.770Z,99799.66
2023-03-05T01:49:38.262Z,99802.25
2023-03-05T01:49:50.194Z,99804.78
2023-03-05T01:50:04.152Z,99797.94
2023-03-05T01:50:22.777Z,99803.94
2023-03-05T01:50:34.764Z,99800.53
2023-03-05T01:50:46.829Z,99803.09
2023-03-05T01:50:58.802Z,99801.41
2023-03-05T01:51:10.760Z,99794.56
2023-03-05T01:51:26.819Z,99797.19
2023-03-05T01:51:55.073Z,99796.34
2023-03-05T01:52:19.516Z,99798.09
2023-03-05T01:52:33.403Z,99792.94
2023-03-05T01:53:00.274Z,99791.22
2023-03-05T01:53:12.329Z,99795.50
2023-03-05T01:53:24.293Z,99799.81
2023-03-05T01:53:36.841Z,99799.81
2023-03-05T01:53:49.405Z,99795.56
2023-03-05T01:54:03.195Z,99790.41
2023-03-05T01:54:19.341Z,99795.56
2023-03-05T01:54:37.138Z,99791.25
2023-03-05T01:54:51.719Z,99791.25
2023-03-05T01:55:08.017Z,99797.25
2023-03-05T01:55:24.062Z,99801.53
2023-03-05T01:55:37.249Z,99801.56
2023-03-05T01:55:49.363Z,99800.69
2023-03-05T01:56:01.594Z,99792.13
2023-03-05T01:56:13.557Z,99796.44
2023-03-05T01:56:27.565Z,99798.13
2023-03-05T01:56:40.798Z,99797.28
2023-03-05T01:56:55.969Z,99792.97
2023-03-05T01:57:13.045Z,99787.78
2023-03-05T01:57:30.373Z,99793.78
2023-03-05T01:57:44.562Z,99796.41
2023-03-05T01:58:03.143Z,99795.50
2023-03-05T01:58:15.076Z,99792.94
2023-03-05T01:58:27.480Z,99794.72
2023-03-05T01:58:39.858Z,99794.66
2023-03-05T01:58:53.428Z,99792.94
2023-03-05T01:59:05.982Z,99799.81
2023-03-05T01:59:18.866Z,99794.72
2023-03-05T01:59:31.380Z,99794.66
2023-03-05T01:59:45.993Z,99799.81
2023-03-05T02:00:01.568Z,99794.72
2023-03-05T02:00:25.054Z,99800.72
2023-03-05T02:00:45.782Z,99795.59
2023-03-05T02:00:58.257Z,99799.88
2023-03-05T02:01:10.286Z,99794.72
2023-03-05T02:01:22.316Z,99787.81
2023-03-05T02:01:40.133Z,99794.66
2023-03-05T02:01:55.998Z,99791.19
2023-03-05T02:02:08.421Z,99793.78
2023-03-05T02:02:22.110Z,99791.19
2023-03-05T02:02:34.089Z,99788.63
2023-03-05T02:02:48.861Z,99794.63
2023-03-05T02:03:06.436Z,99791.19
2023-03-05T02:03:19.713Z,99790.34
2023-03-05T02:03:32.666Z,99790.31
2023-03-05T02:03:45.325Z,99789.50
2023-03-05T02:03:57.816Z,99784.38
2023-03-05T02:04:13.019Z,99786.09
2023-03-05T02:04:32.453Z,99792.94
2023-03-05T02:04:52.577Z,99788.66
2023-03-05T02:05:10.019Z,99789.56
2023-03-05T02:05:31.345Z,99781.00
2023-03-05T02:05:44.439Z,99787.03
2023-03-05T02:05:56.366Z,99786.22
2023-03-05T02:06:08.542Z,99780.22
2023-03-05T02:06:20.499Z,99785.38
2023-03-05T02:06:33.355Z,99784.50
2023-03-05T02:06:46.934Z,99785.34
2023-03-05T02:06:59.707Z,99789.66
2023-03-05T02:07:12.636Z,99787.13
2023-03-05T02:07:25.330Z,99786.22
2023-03-05T02:07:40.048Z,99785.38
2023-03-05T02:07:52.048Z,99789.66
2023-03-05T02:08:07.121Z,99781.09
2023-03-05T02:08:21.197Z,99783.66
2023-03-05T02:08:33.094Z,99787.06
2023-03-05T02:08:45.009Z,99786.19
2023-03-05T02:08:57.126Z,99787.06
2023-03-05T02:09:09.834Z,99786.19
2023-03-05T02:09:23.868Z,99787.03
2023-03-05T02:09:39.696Z,99783.63
2023-03-05T02:09:51.770Z,99787.03
2023-03-05T02:10:21.097Z,99783.63
2023-03-05T02:10:37.507Z,99785.31
2023-03-05T02:10:52.594Z,99789.66
2023-03-05T02:11:05.089Z,99779.41
2023-03-05T02:11:17.079Z,99782.81
2023-03-05T02:11:29.387Z,99784.50
2023-03-05T02:11:42.252Z,99787.91
2023-03-05T02:11:55.160Z,99785.34
2023-03-05T02:12:08.705Z,99789.66
2023-03-05T02:12:21.083Z,99783.66
2023-03-05T02:12:34.577Z,99787.09
2023-03-05T02:12:49.058Z,99791.44
2023-03-05T02:13:04.115Z,99793.16
2023-03-05T02:13:20.008Z,99789.72
2023-03-05T02:13:38.204Z,99792.31
2023-03-05T02:13:50.223Z,99787.16
2023-03-05T02:14:05.027Z,99789.78
2023-03-05T02:14:16.995Z,99785.50
2023-03-05T02:14:29.124Z,99795.78
2023-03-05T02:14:45.013Z,99790.63
2023-03-05T02:14:59.320Z,99791.47
2023-03-05T02:15:12.436Z,99781.13
2023-03-05T02:15:24.564Z,99782.81
2023-03-05T02:15:37.808Z,99782.84
2023-03-05T02:15:51.128Z,99787.16
2023-03-05T02:16:03.196Z,99789.72
2023-03-05T02:16:15.310Z,99789.69
2023-03-05T02:16:35.705Z,99781.97
2023-03-05T02:16:47.792Z,99784.53
2023-03-05T02:16:59.940Z,99788.84
2023-03-05T02:17:12.673Z,99782.84
2023-03-05T02:17:27.768Z,99782.84
2023-03-05T02:17:39.869Z,99794.88
2023-03-05T02:17:51.995Z,99794.88
2023-03-05T02:18:04.488Z,99772.56
2023-03-05T02:18:20.998Z,99779.44
2023-03-05T02:18:33.034Z,99784.53
2023-03-05T02:18:45.063Z,99790.53
2023-03-05T02:18:57.035Z,99783.66
2023-03-05T02:19:11.837Z,99781.91
2023-03-05T02:19:23.786Z,99787.09
2023-03-05T02:19:56.410Z,99781.94
2023-03-05T02:20:21.129Z,99787.91
2023-03-05T02:20:53.850Z,99781.03
2023-03-05T02:21:09.917Z,99777.63
2023-03-05T02:21:35.506Z,99781.88
2023-03-05T02:21:50.507Z,99781.88
2023-03-05T02:22:02.472Z,99777.63
2023-03-05T02:22:15.569Z,99782.78
2023-03-05T02:22:27.507Z,99783.66
2023-03-05T02:22:39.476Z,99782.81
2023-03-05T02:22:51.875Z,99778.50
2023-03-05T02:23:03.762Z,99781.06
2023-03-05T02:23:17.288Z,99779.34
2023-03-05T02:23:36.334Z,99779.41
2023-03-05T02:23:48.220Z,99780.25
2023-03-05T02:24:00.107Z,99780.22
2023-03-05T02:24:17.491Z,99778.50
2023-03-05T02:24:36.158Z,99784.50
2023-03-05T02:24:48.389Z,99772.50
2023-03-05T02:25:00.325Z,99776.81
2023-03-05T02:25:17.855Z,99778.50
2023-03-05T02:25:29.849Z,99781.94
2023-03-05T02:25:41.853Z,99781.06
2023-03-05T02:25:53.822Z,99781.13
2023-03-05T02:26:09.153Z,99781.94
2023-03-05T02:26:21.179Z,99784.53
2023-03-05T02:26:33.110Z,99779.34
2023-03-05T02:26:46.811Z,99784.50
2023-03-05T02:26:58.761Z,99782.75
2023-03-05T02:27:13.033Z,99776.78
2023-03-05T02:27:34.809Z,99778.50
2023-03-05T02:27:54.671Z,99781.03
2023-03-05T02:28:13.823Z,99779.31
2023-03-05T02:28:34.545Z,99775.84
2023-03-05T02:28:53.655Z,99775.84
2023-03-05T02:29:08.989Z,99772.38
2023-03-05T02:29:21.097Z,99773.25
2023-03-05T02:29:34.809Z,99774.13
2023-03-05T02:29:46.766Z,99781.84
2023-03-05T02:29:58.659Z,99774.09
2023-03-05T02:30:11.341Z,99768.97
2023-03-05T02:30:23.537Z,99777.63
2023-03-05T02:30:35.961Z,99771.63
2023-03-05T02:30:47.879Z,99772.56
2023-03-05T02:31:00.019Z,99773.44
2023-03-05T02:31:17.863Z,99783.69
2023-03-05T02:31:31.159Z,99775.94
2023-03-05T02:31:43.271Z,99774.19
2023-03-05T02:31:55.490Z,99770.78
2023-03-05T02:32:08.610Z,99775.03
2023-03-05T02:32:20.720Z,99777.63
2023-03-05T02:32:32.687Z,99768.19
2023-03-05T02:32:44.654Z,99772.47
2023-03-05T02:32:56.917Z,99774.19
2023-03-05T02:33:08.917Z,99768.22
2023-03-05T02:33:21.221Z,99764.78
2023-03-05T02:33:33.118Z,99767.31
2023-03-05T02:33:46.106Z,99769.03
2023-03-05T02:33:58.092Z,99767.31
2023-03-05T02:34:10.329Z,99775.03
2023-03-05T02:34:23.324Z,99767.31
2023-03-05T02:34:36.273Z,99768.19
2023-03-05T02:34:48.167Z,99766.47
2023-03-05T02:35:00.148Z,99769.03
2023-03-05T02:35:12.101Z,99772.47
2023-03-05T02:35:24.798Z,99774.19
2023-03-05T02:35:36.885Z,99769.09
2023-03-05T02:35:48.945Z,99772.56
2023-03-05T02:36:00.974Z,99767.41
2023-03-05T02:36:13.336Z,99770.81